createdAt,value
2019-04-03T00:04:15.803Z,7.00
2019-04-03T00:14:21.606Z,6.70
2019-04-03T00:24:27.231Z,6.70
2019-04-03T00:34:32.746Z,6.50
2019-04-03T00:44:38.460Z,6.30
2019-04-03T00:54:43.969Z,6.20
2019-04-03T01:04:49.690Z,6.00
2019-04-03T01:14:55.328Z,5.90
2019-04-03T01:25:00.968Z,5.80
2019-04-03T01:35:09.079Z,5.80
2019-04-03T01:45:13.979Z,5.80
2019-04-03T01:55:19.503Z,5.70
2019-04-03T02:05:25.093Z,5.70
2019-04-03T02:15:30.757Z,5.60
2019-04-03T02:25:36.349Z,5.70
2019-04-03T02:35:42.202Z,5.60
2019-04-03T02:45:48.289Z,5.50
2019-04-03T02:55:55.741Z,5.20
2019-04-03T03:06:01.517Z,5.00
2019-04-03T03:16:07.547Z,4.90
2019-04-03T03:26:13.186Z,4.90
2019-04-03T03:36:23.637Z,4.90
2019-04-03T03:46:28.875Z,4.90
2019-04-03T03:56:48.665Z,4.80
2019-04-03T04:06:54.431Z,4.80
2019-04-03T04:17:00.316Z,4.80
2019-04-03T04:27:06.141Z,4.80
2019-04-03T04:37:12.118Z,4.80
2019-04-03T04:47:17.775Z,5.00
2019-04-03T04:57:24.321Z,5.20
2019-04-03T05:07:30.785Z,5.50
2019-04-03T05:17:37.709Z,5.90
2019-04-03T05:27:43.320Z,6.30
2019-04-03T05:38:01.349Z,6.70
2019-04-03T05:48:12.048Z,7.00
2019-04-03T05:58:16.491Z,7.50
2019-04-03T06:08:21.307Z,8.00
2019-04-03T06:18:26.990Z,8.30
2019-04-03T06:28:32.597Z,8.80
2019-04-03T06:38:38.148Z,9.40
2019-04-03T06:48:43.895Z,10.30
2019-04-03T06:58:49.530Z,11.20
2019-04-03T07:08:55.237Z,11.50
2019-04-03T07:19:00.769Z,11.70
2019-04-03T07:29:06.635Z,11.70
2019-04-03T07:39:12.542Z,11.80
2019-04-03T07:49:18.405Z,12.30
2019-04-03T07:59:24.102Z,13.00
2019-04-03T08:09:30.455Z,13.50
2019-04-03T08:19:36.243Z,13.70
2019-04-03T08:49:56.453Z,14.80
2019-04-03T09:00:02.030Z,15.20
2019-04-03T09:10:10.193Z,15.30
2019-04-03T09:20:16.349Z,15.90
2019-04-03T09:30:22.216Z,16.60
2019-04-03T09:40:27.761Z,16.70
2019-04-03T09:50:33.273Z,17.00
2019-04-03T10:10:47.156Z,18.50
2019-04-03T10:30:58.529Z,18.90
2019-04-03T10:41:04.057Z,19.20
2019-04-03T11:01:15.619Z,19.60
2019-04-03T11:11:21.516Z,20.50
2019-04-03T11:21:27.497Z,20.60
2019-04-03T11:31:39.343Z,20.40
2019-04-03T11:41:40.597Z,20.70
2019-04-03T11:51:46.502Z,21.20
2019-04-03T12:01:52.221Z,21.30
2019-04-03T12:11:57.938Z,21.70
2019-04-03T12:22:03.665Z,22.30
2019-04-03T12:32:09.855Z,22.30
2019-04-03T12:42:17.253Z,22.50
2019-04-03T12:52:24.301Z,22.20
2019-04-03T13:02:30.123Z,21.60
2019-04-03T13:12:36.173Z,21.40
2019-04-03T13:22:42.950Z,21.40
2019-04-03T13:53:02.633Z,22.30
2019-04-03T14:03:08.544Z,22.30
2019-04-03T14:13:14.502Z,21.50
2019-04-03T14:23:20.537Z,20.40
2019-04-03T14:33:26.300Z,20.40
2019-04-03T14:43:34.029Z,19.90
2019-04-03T14:53:40.178Z,19.90
2019-04-03T15:03:46.184Z,19.50
2019-04-03T15:13:52.058Z,19.30
2019-04-03T15:23:58.097Z,19.00
2019-04-03T15:34:04.026Z,18.80
2019-04-03T15:44:10.138Z,18.70
2019-04-03T15:54:16.207Z,18.60
2019-04-03T16:04:22.075Z,18.50
2019-04-03T16:14:29.014Z,18.40
2019-04-03T16:24:35.471Z,18.90
2019-04-03T16:34:45.131Z,18.80
2019-04-03T16:44:53.272Z,18.50
2019-04-03T16:54:59.187Z,18.10
2019-04-03T17:05:06.796Z,17.60
2019-04-03T17:15:13.541Z,16.90
2019-04-03T17:25:20.543Z,16.40
2019-04-03T17:35:31.070Z,16.00
2019-04-03T17:45:46.160Z,15.60
2019-04-03T17:56:02.423Z,14.50
2019-04-03T18:06:10.310Z,14.60
2019-04-03T18:16:19.699Z,14.40
2019-04-03T18:26:27.084Z,14.10
2019-04-03T18:36:33.207Z,13.70
2019-04-03T18:46:42.452Z,13.30
2019-04-03T18:56:48.591Z,13.20
2019-04-03T19:06:56.445Z,13.00
2019-04-03T19:27:08.104Z,12.80
2019-04-03T19:37:14.127Z,12.90
2019-04-03T19:47:28.681Z,12.70
2019-04-03T19:57:34.965Z,12.80
2019-04-03T20:07:41.046Z,13.00
2019-04-03T20:17:47.042Z,13.30
2019-04-03T20:27:56.816Z,13.20
2019-04-03T20:38:02.247Z,13.20
2019-04-03T20:48:08.180Z,13.20
2019-04-03T20:58:14.163Z,12.90
2019-04-03T21:18:25.920Z,11.80
2019-04-03T21:28:31.430Z,12.10
2019-04-03T21:38:36.952Z,12.10
2019-04-03T21:48:42.902Z,11.90
2019-04-03T21:58:49.693Z,11.90
2019-04-03T22:08:55.322Z,11.70
2019-04-03T22:29:06.049Z,11.20
2019-04-03T22:39:13.647Z,10.90
2019-04-03T22:49:19.200Z,10.50
2019-04-03T22:59:24.858Z,10.50
2019-04-03T23:09:30.398Z,10.70
2019-04-03T23:19:36.148Z,10.80
2019-04-03T23:29:41.837Z,10.70
2019-04-03T23:39:47.461Z,10.60
2019-04-03T23:49:52.998Z,10.50
2019-04-03T23:59:59.613Z,10.60
